sensor_id;sensor_type;location;lat;lon;timestamp;temperature;humidity
10883;DHT22;5494;51.796;10.952;2024-01-27T00:00:11;5.70;1.00
10883;DHT22;5494;51.796;10.952;2024-01-27T00:02:41;4.90;1.00
10883;DHT22;5494;51.796;10.952;2024-01-27T00:05:09;4.90;1.00
10883;DHT22;5494;51.796;10.952;2024-01-27T00:07:38;4.90;99.90
10883;DHT22;5494;51.796;10.952;2024-01-27T00:10:07;4.90;71.10
10883;DHT22;5494;51.796;10.952;2024-01-27T00:12:36;5.00;1.00
10883;DHT22;5494;51.796;10.952;2024-01-27T00:15:07;5.80;1.00
10883;DHT22;5494;51.796;10.952;2024-01-27T00:17:36;5.10;1.00
10883;DHT22;5494;51.796;10.952;2024-01-27T00:20:05;5.10;1.00
10883;DHT22;5494;51.796;10.952;2024-01-27T00:22:34;5.10;1.00
10883;DHT22;5494;51.796;10.952;2024-01-27T00:25:04;5.20;1.00
10883;DHT22;5494;51.796;10.952;2024-01-27T00:27:33;5.10;1.00
10883;DHT22;5494;51.796;10.952;2024-01-27T00:30:01;5.10;1.00
10883;DHT22;5494;51.796;10.952;2024-01-27T00:32:31;5.10;1.00
10883;DHT22;5494;51.796;10.952;2024-01-27T00:35:00;5.20;1.00
10883;DHT22;5494;51.796;10.952;2024-01-27T00:37:29;5.20;1.00
10883;DHT22;5494;51.796;10.952;2024-01-27T00:39:57;5.20;1.00
10883;DHT22;5494;51.796;10.952;2024-01-27T00:42:27;5.20;1.00
10883;DHT22;5494;51.796;10.952;2024-01-27T00:44:55;5.20;1.00
10883;DHT22;5494;51.796;10.952;2024-01-27T00:47:23;5.10;1.00
10883;DHT22;5494;51.796;10.952;2024-01-27T00:49:51;5.10;1.00
10883;DHT22;5494;51.796;10.952;2024-01-27T00:52:20;5.00;1.00
10883;DHT22;5494;51.796;10.952;2024-01-27T00:54:49;5.10;1.00
10883;DHT22;5494;51.796;10.952;2024-01-27T00:57:17;5.00;1.00
10883;DHT22;5494;51.796;10.952;2024-01-27T00:59:46;5.00;1.00
10883;DHT22;5494;51.796;10.952;2024-01-27T01:02:14;5.00;1.00
10883;DHT22;5494;51.796;10.952;2024-01-27T01:04:42;4.90;1.00
10883;DHT22;5494;51.796;10.952;2024-01-27T01:07:11;4.90;1.00
10883;DHT22;5494;51.796;10.952;2024-01-27T01:09:39;4.90;1.00
10883;DHT22;5494;51.796;10.952;2024-01-27T01:12:07;4.90;1.00
10883;DHT22;5494;51.796;10.952;2024-01-27T01:14:37;4.90;1.00
10883;DHT22;5494;51.796;10.952;2024-01-27T01:17:07;4.90;1.00
10883;DHT22;5494;51.796;10.952;2024-01-27T01:19:36;4.90;72.90
10883;DHT22;5494;51.796;10.952;2024-01-27T01:22:05;4.90;99.90
10883;DHT22;5494;51.796;10.952;2024-01-27T01:24:36;4.90;99.90
10883;DHT22;5494;51.796;10.952;2024-01-27T01:27:04;4.90;99.90
10883;DHT22;5494;51.796;10.952;2024-01-27T01:29:33;4.80;99.90
10883;DHT22;5494;51.796;10.952;2024-01-27T01:32:02;4.80;99.90
10883;DHT22;5494;51.796;10.952;2024-01-27T01:34:32;4.90;99.90
10883;DHT22;5494;51.796;10.952;2024-01-27T01:37:01;4.90;76.60
10883;DHT22;5494;51.796;10.952;2024-01-27T01:39:29;4.90;99.90
10883;DHT22;5494;51.796;10.952;2024-01-27T01:41:57;4.90;99.90
10883;DHT22;5494;51.796;10.952;2024-01-27T01:44:29;4.90;99.90
10883;DHT22;5494;51.796;10.952;2024-01-27T01:46:58;4.90;99.90
10883;DHT22;5494;51.796;10.952;2024-01-27T01:49:27;4.80;99.90
10883;DHT22;5494;51.796;10.952;2024-01-27T01:51:56;4.80;99.90
10883;DHT22;5494;51.796;10.952;2024-01-27T01:54:25;4.80;99.90
10883;DHT22;5494;51.796;10.952;2024-01-27T01:56:55;4.80;99.90
10883;DHT22;5494;51.796;10.952;2024-01-27T01:59:25;4.80;99.90
10883;DHT22;5494;51.796;10.952;2024-01-27T02:01:54;4.80;99.90
10883;DHT22;5494;51.796;10.952;2024-01-27T02:04:22;4.80;99.90
10883;DHT22;5494;51.796;10.952;2024-01-27T02:06:50;4.80;99.90
10883;DHT22;5494;51.796;10.952;2024-01-27T02:09:20;4.80;99.90
10883;DHT22;5494;51.796;10.952;2024-01-27T02:11:48;4.90;99.90
10883;DHT22;5494;51.796;10.952;2024-01-27T02:14:16;4.90;1.00
10883;DHT22;5494;51.796;10.952;2024-01-27T02:16:48;4.90;99.90
10883;DHT22;5494;51.796;10.952;2024-01-27T02:19:16;4.90;1.00
10883;DHT22;5494;51.796;10.952;2024-01-27T02:21:44;4.90;1.00
10883;DHT22;5494;51.796;10.952;2024-01-27T02:24:14;4.80;1.00
10883;DHT22;5494;51.796;10.952;2024-01-27T02:26:42;4.80;1.00
10883;DHT22;5494;51.796;10.952;2024-01-27T02:29:10;4.80;1.00
10883;DHT22;5494;51.796;10.952;2024-01-27T02:31:38;4.80;1.00
10883;DHT22;5494;51.796;10.952;2024-01-27T02:34:06;4.70;80.70
10883;DHT22;5494;51.796;10.952;2024-01-27T02:36:34;4.70;99.90
10883;DHT22;5494;51.796;10.952;2024-01-27T02:39:02;4.70;99.90
10883;DHT22;5494;51.796;10.952;2024-01-27T02:41:32;4.60;1.00
10883;DHT22;5494;51.796;10.952;2024-01-27T02:44:05;4.60;1.00
10883;DHT22;5494;51.796;10.952;2024-01-27T02:46:33;4.60;1.00
10883;DHT22;5494;51.796;10.952;2024-01-27T02:49:01;4.60;45.20
10883;DHT22;5494;51.796;10.952;2024-01-27T02:51:30;4.60;1.00
10883;DHT22;5494;51.796;10.952;2024-01-27T02:53:58;4.60;64.70
10883;DHT22;5494;51.796;10.952;2024-01-27T02:56:26;4.80;1.00
10883;DHT22;5494;51.796;10.952;2024-01-27T02:58:55;4.80;1.00
10883;DHT22;5494;51.796;10.952;2024-01-27T03:01:23;4.80;2.60
10883;DHT22;5494;51.796;10.952;2024-01-27T03:03:51;4.80;99.90
10883;DHT22;5494;51.796;10.952;2024-01-27T03:06:20;4.80;99.90
10883;DHT22;5494;51.796;10.952;2024-01-27T03:08:48;4.90;99.90
10883;DHT22;5494;51.796;10.952;2024-01-27T03:11:16;5.00;99.90
10883;DHT22;5494;51.796;10.952;2024-01-27T03:13:44;5.00;1.00
10883;DHT22;5494;51.796;10.952;2024-01-27T03:16:13;5.00;99.90
10883;DHT22;5494;51.796;10.952;2024-01-27T03:18:44;5.00;21.30
10883;DHT22;5494;51.796;10.952;2024-01-27T03:21:12;5.00;1.00
10883;DHT22;5494;51.796;10.952;2024-01-27T03:23:40;5.00;1.00
10883;DHT22;5494;51.796;10.952;2024-01-27T03:26:08;5.00;1.00
10883;DHT22;5494;51.796;10.952;2024-01-27T03:28:37;5.00;1.00
10883;DHT22;5494;51.796;10.952;2024-01-27T03:31:05;5.00;1.00
10883;DHT22;5494;51.796;10.952;2024-01-27T03:33:34;5.00;1.00
10883;DHT22;5494;51.796;10.952;2024-01-27T03:36:03;5.00;1.00
10883;DHT22;5494;51.796;10.952;2024-01-27T03:38:36;5.00;1.00
10883;DHT22;5494;51.796;10.952;2024-01-27T03:41:05;5.00;1.00
10883;DHT22;5494;51.796;10.952;2024-01-27T03:43:34;5.00;1.00
10883;DHT22;5494;51.796;10.952;2024-01-27T03:46:02;4.90;1.00
10883;DHT22;5494;51.796;10.952;2024-01-27T03:48:30;4.90;1.00
10883;DHT22;5494;51.796;10.952;2024-01-27T03:51:00;4.90;1.00
10883;DHT22;5494;51.796;10.952;2024-01-27T03:53:28;4.90;1.00
10883;DHT22;5494;51.796;10.952;2024-01-27T03:55:57;4.90;1.00
10883;DHT22;5494;51.796;10.952;2024-01-27T03:58:26;4.80;99.90
10883;DHT22;5494;51.796;10.952;2024-01-27T04:00:54;4.90;57.20
10883;DHT22;5494;51.796;10.952;2024-01-27T04:03:22;4.90;72.50
10883;DHT22;5494;51.796;10.952;2024-01-27T04:05:50;4.90;99.90
10883;DHT22;5494;51.796;10.952;2024-01-27T04:08:19;4.90;99.90
10883;DHT22;5494;51.796;10.952;2024-01-27T04:10:47;4.90;99.90
10883;DHT22;5494;51.796;10.952;2024-01-27T04:13:15;4.80;99.90
10883;DHT22;5494;51.796;10.952;2024-01-27T04:15:43;4.90;99.90
10883;DHT22;5494;51.796;10.952;2024-01-27T04:18:11;4.90;61.40
10883;DHT22;5494;51.796;10.952;2024-01-27T04:20:39;4.80;99.90
10883;DHT22;5494;51.796;10.952;2024-01-27T04:23:07;4.90;1.00
10883;DHT22;5494;51.796;10.952;2024-01-27T04:25:37;4.90;1.00
10883;DHT22;5494;51.796;10.952;2024-01-27T04:28:05;4.90;1.00
10883;DHT22;5494;51.796;10.952;2024-01-27T04:30:33;4.90;1.00
10883;DHT22;5494;51.796;10.952;2024-01-27T04:33:01;4.90;1.00
10883;DHT22;5494;51.796;10.952;2024-01-27T04:35:29;5.00;99.90
10883;DHT22;5494;51.796;10.952;2024-01-27T04:37:57;4.90;1.00
10883;DHT22;5494;51.796;10.952;2024-01-27T04:40:26;5.00;99.90
10883;DHT22;5494;51.796;10.952;2024-01-27T04:42:55;5.00;1.00
10883;DHT22;5494;51.796;10.952;2024-01-27T04:45:23;5.00;99.90
10883;DHT22;5494;51.796;10.952;2024-01-27T04:47:51;5.00;99.90
10883;DHT22;5494;51.796;10.952;2024-01-27T04:50:20;5.00;99.90
10883;DHT22;5494;51.796;10.952;2024-01-27T04:52:48;5.00;1.00
10883;DHT22;5494;51.796;10.952;2024-01-27T04:55:16;4.90;1.00
10883;DHT22;5494;51.796;10.952;2024-01-27T04:57:44;4.90;1.00
10883;DHT22;5494;51.796;10.952;2024-01-27T05:00:14;4.90;1.00
10883;DHT22;5494;51.796;10.952;2024-01-27T05:02:43;4.90;97.60
10883;DHT22;5494;51.796;10.952;2024-01-27T05:05:11;4.80;99.90
10883;DHT22;5494;51.796;10.952;2024-01-27T05:07:39;4.80;99.90
10883;DHT22;5494;51.796;10.952;2024-01-27T05:10:10;4.60;1.00
10883;DHT22;5494;51.796;10.952;2024-01-27T05:12:39;4.60;1.00
10883;DHT22;5494;51.796;10.952;2024-01-27T05:15:08;4.60;1.00
10883;DHT22;5494;51.796;10.952;2024-01-27T05:17:38;5.40;1.00
10883;DHT22;5494;51.796;10.952;2024-01-27T05:20:07;4.60;1.00
10883;DHT22;5494;51.796;10.952;2024-01-27T05:22:36;4.50;1.00
10883;DHT22;5494;51.796;10.952;2024-01-27T05:25:04;4.40;1.00
10883;DHT22;5494;51.796;10.952;2024-01-27T05:27:33;3.80;1.00
10883;DHT22;5494;51.796;10.952;2024-01-27T05:30:01;4.30;1.00
10883;DHT22;5494;51.796;10.952;2024-01-27T05:32:29;4.30;1.00
10883;DHT22;5494;51.796;10.952;2024-01-27T05:34:58;4.20;1.00
10883;DHT22;5494;51.796;10.952;2024-01-27T05:37:26;4.20;1.00
10883;DHT22;5494;51.796;10.952;2024-01-27T05:39:54;4.10;1.00
10883;DHT22;5494;51.796;10.952;2024-01-27T05:42:22;4.10;1.00
10883;DHT22;5494;51.796;10.952;2024-01-27T05:44:50;4.10;1.00
10883;DHT22;5494;51.796;10.952;2024-01-27T05:47:18;4.20;1.00
10883;DHT22;5494;51.796;10.952;2024-01-27T05:49:46;4.20;1.00
10883;DHT22;5494;51.796;10.952;2024-01-27T05:52:16;4.10;1.00
10883;DHT22;5494;51.796;10.952;2024-01-27T05:54:51;4.20;1.00
10883;DHT22;5494;51.796;10.952;2024-01-27T05:57:20;4.20;1.00
10883;DHT22;5494;51.796;10.952;2024-01-27T05:59:48;4.20;1.00
10883;DHT22;5494;51.796;10.952;2024-01-27T06:02:16;4.20;1.00
10883;DHT22;5494;51.796;10.952;2024-01-27T06:04:45;4.10;1.00
10883;DHT22;5494;51.796;10.952;2024-01-27T06:07:13;4.10;1.00
10883;DHT22;5494;51.796;10.952;2024-01-27T06:09:43;4.10;1.00
10883;DHT22;5494;51.796;10.952;2024-01-27T06:12:10;4.10;1.00
10883;DHT22;5494;51.796;10.952;2024-01-27T06:14:40;4.10;1.00
10883;DHT22;5494;51.796;10.952;2024-01-27T06:17:08;4.10;1.00
10883;DHT22;5494;51.796;10.952;2024-01-27T06:19:37;4.10;1.00
10883;DHT22;5494;51.796;10.952;2024-01-27T06:22:05;4.10;1.00
10883;DHT22;5494;51.796;10.952;2024-01-27T06:24:34;4.10;1.00
10883;DHT22;5494;51.796;10.952;2024-01-27T06:27:04;4.10;1.00
10883;DHT22;5494;51.796;10.952;2024-01-27T06:29:32;4.20;1.00
10883;DHT22;5494;51.796;10.952;2024-01-27T06:32:00;4.10;1.00
10883;DHT22;5494;51.796;10.952;2024-01-27T06:34:32;4.10;1.00
10883;DHT22;5494;51.796;10.952;2024-01-27T06:37:00;3.10;1.00
10883;DHT22;5494;51.796;10.952;2024-01-27T06:39:33;4.20;1.00
10883;DHT22;5494;51.796;10.952;2024-01-27T06:42:03;4.20;1.00
10883;DHT22;5494;51.796;10.952;2024-01-27T06:44:31;4.30;1.00
10883;DHT22;5494;51.796;10.952;2024-01-27T06:46:59;4.20;1.00
10883;DHT22;5494;51.796;10.952;2024-01-27T06:49:27;4.20;1.00
10883;DHT22;5494;51.796;10.952;2024-01-27T06:51:55;4.10;1.00
10883;DHT22;5494;51.796;10.952;2024-01-27T06:54:23;4.10;1.00
10883;DHT22;5494;51.796;10.952;2024-01-27T06:56:51;4.10;1.00
10883;DHT22;5494;51.796;10.952;2024-01-27T06:59:20;4.20;1.00
10883;DHT22;5494;51.796;10.952;2024-01-27T07:01:48;4.20;1.00
10883;DHT22;5494;51.796;10.952;2024-01-27T07:04:17;4.30;1.00
10883;DHT22;5494;51.796;10.952;2024-01-27T07:06:45;4.30;1.00
10883;DHT22;5494;51.796;10.952;2024-01-27T07:09:13;4.30;1.00
10883;DHT22;5494;51.796;10.952;2024-01-27T07:11:41;4.30;1.00
10883;DHT22;5494;51.796;10.952;2024-01-27T07:14:09;4.40;1.00
10883;DHT22;5494;51.796;10.952;2024-01-27T07:16:39;4.40;1.00
10883;DHT22;5494;51.796;10.952;2024-01-27T07:19:07;4.40;1.00
10883;DHT22;5494;51.796;10.952;2024-01-27T07:21:35;4.40;1.00
10883;DHT22;5494;51.796;10.952;2024-01-27T07:24:04;4.40;1.00
10883;DHT22;5494;51.796;10.952;2024-01-27T07:26:32;4.40;1.00
10883;DHT22;5494;51.796;10.952;2024-01-27T07:29:01;4.50;1.00
10883;DHT22;5494;51.796;10.952;2024-01-27T07:31:29;4.60;1.00
10883;DHT22;5494;51.796;10.952;2024-01-27T07:33:59;4.70;99.90
10883;DHT22;5494;51.796;10.952;2024-01-27T07:36:27;4.70;99.90
10883;DHT22;5494;51.796;10.952;2024-01-27T07:38:59;4.90;1.00
10883;DHT22;5494;51.796;10.952;2024-01-27T07:41:27;5.00;1.00
10883;DHT22;5494;51.796;10.952;2024-01-27T07:44:06;5.20;99.90
10883;DHT22;5494;51.796;10.952;2024-01-27T07:46:34;5.40;99.90
10883;DHT22;5494;51.796;10.952;2024-01-27T07:49:04;5.60;99.90
10883;DHT22;5494;51.796;10.952;2024-01-27T07:51:34;5.70;1.00
10883;DHT22;5494;51.796;10.952;2024-01-27T07:54:02;5.90;1.00
10883;DHT22;5494;51.796;10.952;2024-01-27T07:56:30;6.00;99.90
10883;DHT22;5494;51.796;10.952;2024-01-27T07:58:58;6.20;1.00
10883;DHT22;5494;51.796;10.952;2024-01-27T08:01:26;6.30;1.00
10883;DHT22;5494;51.796;10.952;2024-01-27T08:03:54;6.40;1.00
10883;DHT22;5494;51.796;10.952;2024-01-27T08:06:27;6.50;1.00
10883;DHT22;5494;51.796;10.952;2024-01-27T08:08:57;6.60;99.90
10883;DHT22;5494;51.796;10.952;2024-01-27T08:11:26;6.70;99.90
10883;DHT22;5494;51.796;10.952;2024-01-27T08:13:56;6.80;99.90
10883;DHT22;5494;51.796;10.952;2024-01-27T08:16:24;6.90;99.90
10883;DHT22;5494;51.796;10.952;2024-01-27T08:18:52;7.00;99.90
10883;DHT22;5494;51.796;10.952;2024-01-27T08:21:20;7.00;93.50
10883;DHT22;5494;51.796;10.952;2024-01-27T08:23:49;7.30;1.00
10883;DHT22;5494;51.796;10.952;2024-01-27T08:26:17;7.50;1.00
10883;DHT22;5494;51.796;10.952;2024-01-27T08:28:47;7.60;1.00
10883;DHT22;5494;51.796;10.952;2024-01-27T08:31:16;7.80;1.00
10883;DHT22;5494;51.796;10.952;2024-01-27T08:33:44;8.50;1.00
10883;DHT22;5494;51.796;10.952;2024-01-27T08:36:13;8.10;99.90
10883;DHT22;5494;51.796;10.952;2024-01-27T08:38:41;8.20;99.90
10883;DHT22;5494;51.796;10.952;2024-01-27T08:41:11;8.20;99.90
10883;DHT22;5494;51.796;10.952;2024-01-27T08:43:39;8.30;99.90
10883;DHT22;5494;51.796;10.952;2024-01-27T08:46:08;8.40;99.90
10883;DHT22;5494;51.796;10.952;2024-01-27T08:48:38;8.60;99.90
10883;DHT22;5494;51.796;10.952;2024-01-27T08:51:09;8.80;99.90
10883;DHT22;5494;51.796;10.952;2024-01-27T08:53:37;8.90;99.90
10883;DHT22;5494;51.796;10.952;2024-01-27T08:56:05;8.80;99.90
10883;DHT22;5494;51.796;10.952;2024-01-27T08:58:35;8.90;99.90
10883;DHT22;5494;51.796;10.952;2024-01-27T09:01:03;8.90;99.90
10883;DHT22;5494;51.796;10.952;2024-01-27T09:03:35;9.10;99.90
10883;DHT22;5494;51.796;10.952;2024-01-27T09:06:04;9.10;99.90
10883;DHT22;5494;51.796;10.952;2024-01-27T09:08:32;9.20;99.90
10883;DHT22;5494;51.796;10.952;2024-01-27T09:11:00;9.30;99.90
10883;DHT22;5494;51.796;10.952;2024-01-27T09:13:28;9.50;73.30
10883;DHT22;5494;51.796;10.952;2024-01-27T09:15:58;9.60;32.10
10883;DHT22;5494;51.796;10.952;2024-01-27T09:18:27;9.70;25.90
10883;DHT22;5494;51.796;10.952;2024-01-27T09:20:55;9.70;28.40
10883;DHT22;5494;51.796;10.952;2024-01-27T09:23:23;9.90;19.70
10883;DHT22;5494;51.796;10.952;2024-01-27T09:25:52;10.00;1.00
10883;DHT22;5494;51.796;10.952;2024-01-27T09:28:20;10.00;1.00
10883;DHT22;5494;51.796;10.952;2024-01-27T09:30:49;10.10;1.00
10883;DHT22;5494;51.796;10.952;2024-01-27T09:33:18;10.20;1.00
10883;DHT22;5494;51.796;10.952;2024-01-27T09:35:50;10.10;1.00
10883;DHT22;5494;51.796;10.952;2024-01-27T09:38:18;10.40;1.00
10883;DHT22;5494;51.796;10.952;2024-01-27T09:40:46;10.40;1.00
10883;DHT22;5494;51.796;10.952;2024-01-27T09:43:15;10.50;1.00
10883;DHT22;5494;51.796;10.952;2024-01-27T09:45:45;10.60;1.00
10883;DHT22;5494;51.796;10.952;2024-01-27T09:48:14;10.60;1.00
10883;DHT22;5494;51.796;10.952;2024-01-27T09:50:45;10.80;1.00
10883;DHT22;5494;51.796;10.952;2024-01-27T09:53:16;10.80;1.00
10883;DHT22;5494;51.796;10.952;2024-01-27T09:55:44;10.90;1.00
10883;DHT22;5494;51.796;10.952;2024-01-27T09:58:12;10.90;1.00
10883;DHT22;5494;51.796;10.952;2024-01-27T10:00:42;10.90;1.00
10883;DHT22;5494;51.796;10.952;2024-01-27T10:03:11;10.70;1.00
10883;DHT22;5494;51.796;10.952;2024-01-27T10:05:42;10.50;1.00
10883;DHT22;5494;51.796;10.952;2024-01-27T10:08:11;10.40;1.00
10883;DHT22;5494;51.796;10.952;2024-01-27T10:10:39;10.40;1.00
10883;DHT22;5494;51.796;10.952;2024-01-27T10:13:08;10.50;1.00
10883;DHT22;5494;51.796;10.952;2024-01-27T10:15:40;10.60;1.00
10883;DHT22;5494;51.796;10.952;2024-01-27T10:18:08;10.60;1.00
10883;DHT22;5494;51.796;10.952;2024-01-27T10:20:40;10.50;1.00
10883;DHT22;5494;51.796;10.952;2024-01-27T10:23:13;10.50;1.00
10883;DHT22;5494;51.796;10.952;2024-01-27T10:25:41;10.60;1.00
10883;DHT22;5494;51.796;10.952;2024-01-27T10:28:09;10.60;1.00
10883;DHT22;5494;51.796;10.952;2024-01-27T10:30:37;10.50;1.00
10883;DHT22;5494;51.796;10.952;2024-01-27T10:33:08;10.50;1.00
10883;DHT22;5494;51.796;10.952;2024-01-27T10:35:37;10.50;1.00
10883;DHT22;5494;51.796;10.952;2024-01-27T10:38:05;10.40;1.00
10883;DHT22;5494;51.796;10.952;2024-01-27T10:40:35;10.50;1.00
10883;DHT22;5494;51.796;10.952;2024-01-27T10:43:05;10.30;1.00
10883;DHT22;5494;51.796;10.952;2024-01-27T10:45:35;10.20;1.00
10883;DHT22;5494;51.796;10.952;2024-01-27T10:48:05;10.30;1.00
10883;DHT22;5494;51.796;10.952;2024-01-27T10:50:37;10.40;1.00
10883;DHT22;5494;51.796;10.952;2024-01-27T10:53:21;10.40;1.00
10883;DHT22;5494;51.796;10.952;2024-01-27T10:55:53;10.20;1.00
10883;DHT22;5494;51.796;10.952;2024-01-27T10:58:23;10.50;1.00
10883;DHT22;5494;51.796;10.952;2024-01-27T11:00:53;10.30;1.00
10883;DHT22;5494;51.796;10.952;2024-01-27T11:03:24;10.30;1.00
10883;DHT22;5494;51.796;10.952;2024-01-27T11:05:54;10.40;1.00
10883;DHT22;5494;51.796;10.952;2024-01-27T11:08:24;10.70;1.00
10883;DHT22;5494;51.796;10.952;2024-01-27T11:10:58;10.30;1.00
10883;DHT22;5494;51.796;10.952;2024-01-27T11:13:28;10.30;1.00
10883;DHT22;5494;51.796;10.952;2024-01-27T11:15:58;10.10;1.00
10883;DHT22;5494;51.796;10.952;2024-01-27T11:18:27;10.10;1.00
10883;DHT22;5494;51.796;10.952;2024-01-27T11:20:58;10.10;1.00
10883;DHT22;5494;51.796;10.952;2024-01-27T11:23:34;10.10;1.00
10883;DHT22;5494;51.796;10.952;2024-01-27T11:26:05;10.10;1.00
10883;DHT22;5494;51.796;10.952;2024-01-27T11:28:34;10.10;1.00
10883;DHT22;5494;51.796;10.952;2024-01-27T11:31:04;10.20;1.00
10883;DHT22;5494;51.796;10.952;2024-01-27T11:33:32;10.10;1.00
10883;DHT22;5494;51.796;10.952;2024-01-27T11:36:01;10.30;1.00
10883;DHT22;5494;51.796;10.952;2024-01-27T11:38:32;10.30;1.00
10883;DHT22;5494;51.796;10.952;2024-01-27T11:41:00;10.40;1.00
10883;DHT22;5494;51.796;10.952;2024-01-27T11:43:30;10.40;1.00
10883;DHT22;5494;51.796;10.952;2024-01-27T11:45:58;10.40;1.00
10883;DHT22;5494;51.796;10.952;2024-01-27T11:48:27;10.40;1.00
10883;DHT22;5494;51.796;10.952;2024-01-27T11:51:04;10.30;1.00
10883;DHT22;5494;51.796;10.952;2024-01-27T11:53:34;10.20;1.00
10883;DHT22;5494;51.796;10.952;2024-01-27T11:56:03;10.00;1.00
10883;DHT22;5494;51.796;10.952;2024-01-27T11:58:33;10.00;1.00
10883;DHT22;5494;51.796;10.952;2024-01-27T12:01:01;9.90;1.00
10883;DHT22;5494;51.796;10.952;2024-01-27T12:03:29;9.70;1.00
10883;DHT22;5494;51.796;10.952;2024-01-27T12:05:57;9.50;1.00
10883;DHT22;5494;51.796;10.952;2024-01-27T12:08:26;9.40;1.00
10883;DHT22;5494;51.796;10.952;2024-01-27T12:10:54;9.50;1.00
10883;DHT22;5494;51.796;10.952;2024-01-27T12:13:22;9.40;1.00
10883;DHT22;5494;51.796;10.952;2024-01-27T12:15:52;9.30;1.00
10883;DHT22;5494;51.796;10.952;2024-01-27T12:18:20;9.20;1.00
10883;DHT22;5494;51.796;10.952;2024-01-27T12:20:54;9.30;1.00
10883;DHT22;5494;51.796;10.952;2024-01-27T12:23:24;9.30;1.00
10883;DHT22;5494;51.796;10.952;2024-01-27T12:25:55;9.20;1.00
10883;DHT22;5494;51.796;10.952;2024-01-27T12:28:24;9.20;1.00
10883;DHT22;5494;51.796;10.952;2024-01-27T12:30:53;9.10;1.00
10883;DHT22;5494;51.796;10.952;2024-01-27T12:33:21;8.90;1.00
10883;DHT22;5494;51.796;10.952;2024-01-27T12:35:59;8.80;1.00
10883;DHT22;5494;51.796;10.952;2024-01-27T12:38:28;8.80;1.00
10883;DHT22;5494;51.796;10.952;2024-01-27T12:40:55;8.70;1.00
10883;DHT22;5494;51.796;10.952;2024-01-27T12:43:23;8.70;13.50
10883;DHT22;5494;51.796;10.952;2024-01-27T12:45:53;8.60;16.80
10883;DHT22;5494;51.796;10.952;2024-01-27T12:48:21;8.60;12.80
10883;DHT22;5494;51.796;10.952;2024-01-27T12:50:49;8.50;37.50
10883;DHT22;5494;51.796;10.952;2024-01-27T12:53:17;8.50;46.70
10883;DHT22;5494;51.796;10.952;2024-01-27T12:55:45;8.50;19.20
10883;DHT22;5494;51.796;10.952;2024-01-27T12:58:13;8.60;16.30
10883;DHT22;5494;51.796;10.952;2024-01-27T13:00:41;8.60;1.00
10883;DHT22;5494;51.796;10.952;2024-01-27T13:03:10;8.60;1.00
10883;DHT22;5494;51.796;10.952;2024-01-27T13:05:38;8.50;13.90
10883;DHT22;5494;51.796;10.952;2024-01-27T13:08:06;8.50;19.30
10883;DHT22;5494;51.796;10.952;2024-01-27T13:10:35;8.60;5.90
10883;DHT22;5494;51.796;10.952;2024-01-27T13:13:03;8.60;2.20
10883;DHT22;5494;51.796;10.952;2024-01-27T13:15:31;8.60;1.00
10883;DHT22;5494;51.796;10.952;2024-01-27T13:17:59;8.60;2.20
10883;DHT22;5494;51.796;10.952;2024-01-27T13:20:29;8.60;4.40
10883;DHT22;5494;51.796;10.952;2024-01-27T13:22:58;8.60;1.00
10883;DHT22;5494;51.796;10.952;2024-01-27T13:25:26;8.50;1.00
10883;DHT22;5494;51.796;10.952;2024-01-27T13:27:54;8.50;1.00
10883;DHT22;5494;51.796;10.952;2024-01-27T13:30:22;8.50;7.60
10883;DHT22;5494;51.796;10.952;2024-01-27T13:32:52;8.50;1.00
10883;DHT22;5494;51.796;10.952;2024-01-27T13:35:20;8.50;1.00
10883;DHT22;5494;51.796;10.952;2024-01-27T13:37:50;8.50;4.20
10883;DHT22;5494;51.796;10.952;2024-01-27T13:40:18;8.50;1.00
10883;DHT22;5494;51.796;10.952;2024-01-27T13:42:48;8.50;12.90
10883;DHT22;5494;51.796;10.952;2024-01-27T13:45:16;8.60;11.20
10883;DHT22;5494;51.796;10.952;2024-01-27T13:47:44;8.60;1.00
10883;DHT22;5494;51.796;10.952;2024-01-27T13:50:12;8.50;1.00
10883;DHT22;5494;51.796;10.952;2024-01-27T13:52:41;8.50;1.00
10883;DHT22;5494;51.796;10.952;2024-01-27T13:55:12;8.50;15.50
10883;DHT22;5494;51.796;10.952;2024-01-27T13:57:40;8.40;21.50
10883;DHT22;5494;51.796;10.952;2024-01-27T14:00:09;8.40;14.40
10883;DHT22;5494;51.796;10.952;2024-01-27T14:02:38;8.40;29.80
10883;DHT22;5494;51.796;10.952;2024-01-27T14:05:07;8.40;41.20
10883;DHT22;5494;51.796;10.952;2024-01-27T14:07:35;8.40;6.00
10883;DHT22;5494;51.796;10.952;2024-01-27T14:10:04;8.40;4.20
10883;DHT22;5494;51.796;10.952;2024-01-27T14:12:33;8.40;3.60
10883;DHT22;5494;51.796;10.952;2024-01-27T14:15:03;8.40;20.60
10883;DHT22;5494;51.796;10.952;2024-01-27T14:17:33;8.30;39.50
10883;DHT22;5494;51.796;10.952;2024-01-27T14:20:03;8.30;41.70
10883;DHT22;5494;51.796;10.952;2024-01-27T14:22:32;8.30;31.90
10883;DHT22;5494;51.796;10.952;2024-01-27T14:25:00;8.20;56.00
10883;DHT22;5494;51.796;10.952;2024-01-27T14:27:28;8.20;91.80
10883;DHT22;5494;51.796;10.952;2024-01-27T14:29:58;8.20;97.60
10883;DHT22;5494;51.796;10.952;2024-01-27T14:32:26;8.10;92.60
10883;DHT22;5494;51.796;10.952;2024-01-27T14:34:56;8.10;97.90
10883;DHT22;5494;51.796;10.952;2024-01-27T14:37:24;8.20;93.40
10883;DHT22;5494;51.796;10.952;2024-01-27T14:39:52;8.20;91.40
10883;DHT22;5494;51.796;10.952;2024-01-27T14:42:22;8.10;57.70
10883;DHT22;5494;51.796;10.952;2024-01-27T14:44:50;8.10;71.70
10883;DHT22;5494;51.796;10.952;2024-01-27T14:47:21;8.00;57.60
10883;DHT22;5494;51.796;10.952;2024-01-27T14:49:49;8.00;96.20
10883;DHT22;5494;51.796;10.952;2024-01-27T14:52:18;7.90;99.90
10883;DHT22;5494;51.796;10.952;2024-01-27T14:54:46;7.90;99.90
10883;DHT22;5494;51.796;10.952;2024-01-27T14:57:15;7.70;99.90
10883;DHT22;5494;51.796;10.952;2024-01-27T14:59:44;7.60;99.90
10883;DHT22;5494;51.796;10.952;2024-01-27T15:02:12;7.50;99.90
10883;DHT22;5494;51.796;10.952;2024-01-27T15:04:43;7.50;99.90
10883;DHT22;5494;51.796;10.952;2024-01-27T15:07:11;7.50;99.90
10883;DHT22;5494;51.796;10.952;2024-01-27T15:09:42;7.50;99.90
10883;DHT22;5494;51.796;10.952;2024-01-27T15:12:10;7.40;99.90
10883;DHT22;5494;51.796;10.952;2024-01-27T15:14:38;7.40;99.90
10883;DHT22;5494;51.796;10.952;2024-01-27T15:17:06;7.40;99.90
10883;DHT22;5494;51.796;10.952;2024-01-27T15:19:35;7.30;99.90
10883;DHT22;5494;51.796;10.952;2024-01-27T15:22:08;7.10;99.90
10883;DHT22;5494;51.796;10.952;2024-01-27T15:24:36;7.60;99.90
10883;DHT22;5494;51.796;10.952;2024-01-27T15:27:06;6.80;1.00
10883;DHT22;5494;51.796;10.952;2024-01-27T15:29:38;6.70;1.00
10883;DHT22;5494;51.796;10.952;2024-01-27T15:32:06;6.60;1.00
10883;DHT22;5494;51.796;10.952;2024-01-27T15:34:34;6.50;1.00
10883;DHT22;5494;51.796;10.952;2024-01-27T15:37:03;6.40;1.00
10883;DHT22;5494;51.796;10.952;2024-01-27T15:39:33;6.30;1.00
10883;DHT22;5494;51.796;10.952;2024-01-27T15:42:03;6.10;1.00
10883;DHT22;5494;51.796;10.952;2024-01-27T15:44:31;6.00;97.50
10883;DHT22;5494;51.796;10.952;2024-01-27T15:47:01;5.90;99.90
10883;DHT22;5494;51.796;10.952;2024-01-27T15:49:29;5.80;99.90
10883;DHT22;5494;51.796;10.952;2024-01-27T15:51:57;5.70;1.00
10883;DHT22;5494;51.796;10.952;2024-01-27T15:54:25;5.60;1.00
10883;DHT22;5494;51.796;10.952;2024-01-27T15:56:55;5.60;22.80
10883;DHT22;5494;51.796;10.952;2024-01-27T15:59:23;5.60;87.50
10883;DHT22;5494;51.796;10.952;2024-01-27T16:01:51;5.40;99.90
10883;DHT22;5494;51.796;10.952;2024-01-27T16:04:19;5.30;1.00